sensor_id;sensor_type;location;lat;lon;timestamp;P1;durP1;ratioP1;P2;durP2;ratioP2
15708;SDS011;7954;51.914;8.420;2022-07-29T00:00:16;2.13;;;1.10;;
15708;SDS011;7954;51.914;8.420;2022-07-29T00:03:04;1.80;;;1.00;;
15708;SDS011;7954;51.914;8.420;2022-07-29T00:06:18;2.60;;;1.40;;
15708;SDS011;7954;51.914;8.420;2022-07-29T00:09:07;2.00;;;1.33;;
15708;SDS011;7954;51.914;8.420;2022-07-29T00:11:56;2.00;;;1.20;;
15708;SDS011;7954;51.914;8.420;2022-07-29T00:14:47;2.23;;;1.33;;
15708;SDS011;7954;51.914;8.420;2022-07-29T00:17:35;2.90;;;1.20;;
15708;SDS011;7954;51.914;8.420;2022-07-29T00:20:23;3.00;;;1.40;;
15708;SDS011;7954;51.914;8.420;2022-07-29T00:23:13;3.37;;;1.37;;
15708;SDS011;7954;51.914;8.420;2022-07-29T00:26:01;5.13;;;2.13;;
15708;SDS011;7954;51.914;8.420;2022-07-29T00:28:50;4.37;;;1.40;;
15708;SDS011;7954;51.914;8.420;2022-07-29T00:31:58;2.30;;;1.30;;
15708;SDS011;7954;51.914;8.420;2022-07-29T00:34:47;1.83;;;1.30;;
15708;SDS011;7954;51.914;8.420;2022-07-29T00:37:53;1.73;;;1.17;;
15708;SDS011;7954;51.914;8.420;2022-07-29T00:40:43;2.23;;;1.20;;
15708;SDS011;7954;51.914;8.420;2022-07-29T00:43:31;2.93;;;1.40;;
15708;SDS011;7954;51.914;8.420;2022-07-29T00:46:20;1.87;;;1.30;;
15708;SDS011;7954;51.914;8.420;2022-07-29T00:49:09;1.27;;;1.10;;
15708;SDS011;7954;51.914;8.420;2022-07-29T00:51:57;2.13;;;1.33;;
15708;SDS011;7954;51.914;8.420;2022-07-29T00:54:46;1.83;;;1.20;;
15708;SDS011;7954;51.914;8.420;2022-07-29T00:57:37;2.83;;;1.30;;
15708;SDS011;7954;51.914;8.420;2022-07-29T01:00:27;2.33;;;1.20;;
15708;SDS011;7954;51.914;8.420;2022-07-29T01:03:16;2.67;;;1.50;;
15708;SDS011;7954;51.914;8.420;2022-07-29T01:06:04;2.43;;;1.50;;
15708;SDS011;7954;51.914;8.420;2022-07-29T01:08:53;1.37;;;1.10;;
15708;SDS011;7954;51.914;8.420;2022-07-29T01:11:41;2.13;;;1.17;;
15708;SDS011;7954;51.914;8.420;2022-07-29T01:14:32;2.87;;;1.30;;
15708;SDS011;7954;51.914;8.420;2022-07-29T01:17:23;4.63;;;1.30;;
15708;SDS011;7954;51.914;8.420;2022-07-29T01:20:15;3.13;;;1.20;;
15708;SDS011;7954;51.914;8.420;2022-07-29T01:23:13;1.57;;;1.30;;
15708;SDS011;7954;51.914;8.420;2022-07-29T01:26:34;2.90;;;1.40;;
15708;SDS011;7954;51.914;8.420;2022-07-29T01:29:32;3.03;;;1.20;;
15708;SDS011;7954;51.914;8.420;2022-07-29T01:32:27;1.93;;;1.33;;
15708;SDS011;7954;51.914;8.420;2022-07-29T01:35:19;3.97;;;1.50;;
15708;SDS011;7954;51.914;8.420;2022-07-29T01:38:12;1.70;;;1.20;;
15708;SDS011;7954;51.914;8.420;2022-07-29T01:41:05;2.47;;;1.10;;
15708;SDS011;7954;51.914;8.420;2022-07-29T01:43:57;2.13;;;1.30;;
15708;SDS011;7954;51.914;8.420;2022-07-29T01:46:52;2.03;;;1.23;;
15708;SDS011;7954;51.914;8.420;2022-07-29T01:49:46;2.13;;;1.20;;
15708;SDS011;7954;51.914;8.420;2022-07-29T01:52:37;8.33;;;1.40;;
15708;SDS011;7954;51.914;8.420;2022-07-29T01:55:31;1.50;;;1.30;;
15708;SDS011;7954;51.914;8.420;2022-07-29T01:58:21;1.63;;;1.20;;
15708;SDS011;7954;51.914;8.420;2022-07-29T02:01:11;2.63;;;1.40;;
15708;SDS011;7954;51.914;8.420;2022-07-29T02:04:03;1.67;;;1.10;;
15708;SDS011;7954;51.914;8.420;2022-07-29T02:06:53;1.73;;;1.00;;
15708;SDS011;7954;51.914;8.420;2022-07-29T02:09:43;3.17;;;1.30;;
15708;SDS011;7954;51.914;8.420;2022-07-29T02:12:33;2.83;;;1.40;;
15708;SDS011;7954;51.914;8.420;2022-07-29T02:15:24;1.60;;;1.20;;
15708;SDS011;7954;51.914;8.420;2022-07-29T02:18:14;2.07;;;1.20;;
15708;SDS011;7954;51.914;8.420;2022-07-29T02:21:06;1.43;;;1.20;;
15708;SDS011;7954;51.914;8.420;2022-07-29T02:24:01;2.80;;;1.23;;
15708;SDS011;7954;51.914;8.420;2022-07-29T02:26:53;2.67;;;1.20;;
15708;SDS011;7954;51.914;8.420;2022-07-29T02:29:44;2.03;;;1.20;;
15708;SDS011;7954;51.914;8.420;2022-07-29T02:32:34;1.53;;;1.23;;
15708;SDS011;7954;51.914;8.420;2022-07-29T02:35:25;3.17;;;1.40;;
15708;SDS011;7954;51.914;8.420;2022-07-29T02:38:22;1.83;;;1.10;;
15708;SDS011;7954;51.914;8.420;2022-07-29T02:41:30;2.47;;;1.27;;
15708;SDS011;7954;51.914;8.420;2022-07-29T02:44:24;1.33;;;1.20;;
15708;SDS011;7954;51.914;8.420;2022-07-29T02:47:20;2.63;;;1.33;;
15708;SDS011;7954;51.914;8.420;2022-07-29T02:50:11;5.07;;;1.70;;
15708;SDS011;7954;51.914;8.420;2022-07-29T02:53:05;3.97;;;1.47;;
15708;SDS011;7954;51.914;8.420;2022-07-29T02:55:58;1.83;;;1.23;;
15708;SDS011;7954;51.914;8.420;2022-07-29T02:58:49;4.23;;;1.27;;
15708;SDS011;7954;51.914;8.420;2022-07-29T03:01:42;2.27;;;1.40;;
15708;SDS011;7954;51.914;8.420;2022-07-29T03:04:34;3.07;;;1.20;;
15708;SDS011;7954;51.914;8.420;2022-07-29T03:07:24;2.70;;;1.30;;
15708;SDS011;7954;51.914;8.420;2022-07-29T03:10:13;2.93;;;1.20;;
15708;SDS011;7954;51.914;8.420;2022-07-29T03:13:03;9.40;;;1.83;;
15708;SDS011;7954;51.914;8.420;2022-07-29T03:15:52;2.17;;;1.10;;
15708;SDS011;7954;51.914;8.420;2022-07-29T03:18:41;2.67;;;1.50;;
15708;SDS011;7954;51.914;8.420;2022-07-29T03:21:30;2.07;;;1.10;;
15708;SDS011;7954;51.914;8.420;2022-07-29T03:24:28;2.83;;;1.30;;
15708;SDS011;7954;51.914;8.420;2022-07-29T03:27:18;2.10;;;1.07;;
15708;SDS011;7954;51.914;8.420;2022-07-29T03:30:08;2.03;;;1.10;;
15708;SDS011;7954;51.914;8.420;2022-07-29T03:33:04;1.63;;;1.37;;
15708;SDS011;7954;51.914;8.420;2022-07-29T03:35:59;1.90;;;1.70;;
15708;SDS011;7954;51.914;8.420;2022-07-29T03:38:49;5.17;;;1.70;;
15708;SDS011;7954;51.914;8.420;2022-07-29T03:41:37;2.57;;;1.20;;
15708;SDS011;7954;51.914;8.420;2022-07-29T03:44:28;1.87;;;1.27;;
15708;SDS011;7954;51.914;8.420;2022-07-29T03:47:20;2.20;;;1.40;;
15708;SDS011;7954;51.914;8.420;2022-07-29T03:50:32;1.63;;;1.27;;
15708;SDS011;7954;51.914;8.420;2022-07-29T03:53:21;2.40;;;1.30;;
15708;SDS011;7954;51.914;8.420;2022-07-29T03:56:10;2.50;;;1.20;;
15708;SDS011;7954;51.914;8.420;2022-07-29T03:59:04;4.50;;;1.40;;
15708;SDS011;7954;51.914;8.420;2022-07-29T04:01:53;2.60;;;1.30;;
15708;SDS011;7954;51.914;8.420;2022-07-29T04:04:46;2.00;;;1.80;;
15708;SDS011;7954;51.914;8.420;2022-07-29T04:07:34;2.20;;;1.27;;
15708;SDS011;7954;51.914;8.420;2022-07-29T04:10:22;2.77;;;1.50;;
15708;SDS011;7954;51.914;8.420;2022-07-29T04:13:17;2.10;;;1.27;;
15708;SDS011;7954;51.914;8.420;2022-07-29T04:16:06;1.57;;;1.07;;
15708;SDS011;7954;51.914;8.420;2022-07-29T04:18:54;2.20;;;1.50;;
15708;SDS011;7954;51.914;8.420;2022-07-29T04:21:44;3.20;;;2.07;;
15708;SDS011;7954;51.914;8.420;2022-07-29T04:24:32;4.37;;;1.30;;
15708;SDS011;7954;51.914;8.420;2022-07-29T04:27:21;4.97;;;1.80;;
15708;SDS011;7954;51.914;8.420;2022-07-29T04:30:09;2.90;;;1.10;;
15708;SDS011;7954;51.914;8.420;2022-07-29T04:32:58;1.70;;;1.20;;
15708;SDS011;7954;51.914;8.420;2022-07-29T04:35:47;3.47;;;1.30;;
15708;SDS011;7954;51.914;8.420;2022-07-29T04:38:42;2.80;;;1.50;;
15708;SDS011;7954;51.914;8.420;2022-07-29T04:41:30;3.93;;;1.60;;
15708;SDS011;7954;51.914;8.420;2022-07-29T04:44:20;1.87;;;1.40;;
15708;SDS011;7954;51.914;8.420;2022-07-29T04:47:14;2.20;;;1.30;;
15708;SDS011;7954;51.914;8.420;2022-07-29T04:50:03;1.73;;;1.37;;
15708;SDS011;7954;51.914;8.420;2022-07-29T04:52:53;2.07;;;1.20;;
15708;SDS011;7954;51.914;8.420;2022-07-29T04:55:43;2.90;;;1.40;;
15708;SDS011;7954;51.914;8.420;2022-07-29T04:58:33;4.10;;;1.80;;
15708;SDS011;7954;51.914;8.420;2022-07-29T05:01:22;6.50;;;1.43;;
15708;SDS011;7954;51.914;8.420;2022-07-29T05:04:10;3.17;;;1.43;;
15708;SDS011;7954;51.914;8.420;2022-07-29T05:06:59;2.33;;;1.27;;
15708;SDS011;7954;51.914;8.420;2022-07-29T05:09:48;4.50;;;2.23;;
15708;SDS011;7954;51.914;8.420;2022-07-29T05:12:37;2.50;;;1.67;;
15708;SDS011;7954;51.914;8.420;2022-07-29T05:15:25;3.43;;;1.70;;
15708;SDS011;7954;51.914;8.420;2022-07-29T05:18:13;3.50;;;1.37;;
15708;SDS011;7954;51.914;8.420;2022-07-29T05:21:02;2.70;;;1.43;;
15708;SDS011;7954;51.914;8.420;2022-07-29T05:23:50;5.47;;;1.80;;
15708;SDS011;7954;51.914;8.420;2022-07-29T05:26:39;4.87;;;1.57;;
15708;SDS011;7954;51.914;8.420;2022-07-29T05:29:29;1.77;;;1.40;;
15708;SDS011;7954;51.914;8.420;2022-07-29T05:32:30;1.87;;;1.20;;
15708;SDS011;7954;51.914;8.420;2022-07-29T05:35:18;3.50;;;1.60;;
15708;SDS011;7954;51.914;8.420;2022-07-29T05:38:08;4.27;;;1.70;;
15708;SDS011;7954;51.914;8.420;2022-07-29T05:40:56;3.03;;;1.33;;
15708;SDS011;7954;51.914;8.420;2022-07-29T05:43:45;1.93;;;1.23;;
15708;SDS011;7954;51.914;8.420;2022-07-29T05:46:36;4.03;;;1.47;;
15708;SDS011;7954;51.914;8.420;2022-07-29T05:49:24;2.70;;;1.13;;
15708;SDS011;7954;51.914;8.420;2022-07-29T05:52:13;4.17;;;1.70;;
15708;SDS011;7954;51.914;8.420;2022-07-29T05:55:01;3.10;;;1.37;;
15708;SDS011;7954;51.914;8.420;2022-07-29T05:57:52;3.27;;;1.77;;
15708;SDS011;7954;51.914;8.420;2022-07-29T06:00:40;2.70;;;1.60;;
15708;SDS011;7954;51.914;8.420;2022-07-29T06:03:30;1.20;;;1.10;;
15708;SDS011;7954;51.914;8.420;2022-07-29T06:06:19;1.60;;;1.10;;
15708;SDS011;7954;51.914;8.420;2022-07-29T06:09:08;1.50;;;1.13;;
15708;SDS011;7954;51.914;8.420;2022-07-29T06:11:58;2.50;;;1.27;;
15708;SDS011;7954;51.914;8.420;2022-07-29T06:14:46;2.37;;;1.33;;
15708;SDS011;7954;51.914;8.420;2022-07-29T06:17:39;4.60;;;1.90;;
15708;SDS011;7954;51.914;8.420;2022-07-29T06:20:47;2.33;;;1.17;;
15708;SDS011;7954;51.914;8.420;2022-07-29T06:23:36;2.73;;;1.27;;
15708;SDS011;7954;51.914;8.420;2022-07-29T06:26:24;2.73;;;1.50;;
15708;SDS011;7954;51.914;8.420;2022-07-29T06:29:16;3.20;;;1.63;;
15708;SDS011;7954;51.914;8.420;2022-07-29T06:32:05;4.03;;;1.57;;
15708;SDS011;7954;51.914;8.420;2022-07-29T06:34:55;2.50;;;1.20;;
15708;SDS011;7954;51.914;8.420;2022-07-29T06:38:05;2.83;;;1.70;;
15708;SDS011;7954;51.914;8.420;2022-07-29T06:41:13;4.03;;;1.53;;
15708;SDS011;7954;51.914;8.420;2022-07-29T06:44:02;2.67;;;1.60;;
15708;SDS011;7954;51.914;8.420;2022-07-29T06:46:51;3.60;;;1.40;;
15708;SDS011;7954;51.914;8.420;2022-07-29T06:49:41;2.13;;;1.30;;
15708;SDS011;7954;51.914;8.420;2022-07-29T06:52:29;2.17;;;1.40;;
15708;SDS011;7954;51.914;8.420;2022-07-29T06:55:19;4.80;;;1.70;;
15708;SDS011;7954;51.914;8.420;2022-07-29T06:58:10;1.40;;;1.10;;
15708;SDS011;7954;51.914;8.420;2022-07-29T07:01:01;2.00;;;1.37;;
15708;SDS011;7954;51.914;8.420;2022-07-29T07:03:50;3.17;;;1.37;;
15708;SDS011;7954;51.914;8.420;2022-07-29T07:06:39;2.27;;;1.30;;
15708;SDS011;7954;51.914;8.420;2022-07-29T07:09:27;3.37;;;1.70;;
15708;SDS011;7954;51.914;8.420;2022-07-29T07:12:27;2.70;;;1.50;;
15708;SDS011;7954;51.914;8.420;2022-07-29T07:15:15;2.70;;;1.70;;
15708;SDS011;7954;51.914;8.420;2022-07-29T07:18:03;2.33;;;1.20;;
15708;SDS011;7954;51.914;8.420;2022-07-29T07:20:52;2.10;;;1.47;;
15708;SDS011;7954;51.914;8.420;2022-07-29T07:23:40;3.00;;;1.57;;
15708;SDS011;7954;51.914;8.420;2022-07-29T07:26:28;2.30;;;1.30;;
15708;SDS011;7954;51.914;8.420;2022-07-29T07:29:18;1.87;;;1.30;;
15708;SDS011;7954;51.914;8.420;2022-07-29T07:32:06;1.73;;;1.33;;
15708;SDS011;7954;51.914;8.420;2022-07-29T07:34:55;1.50;;;1.20;;
15708;SDS011;7954;51.914;8.420;2022-07-29T07:37:44;1.93;;;1.30;;
15708;SDS011;7954;51.914;8.420;2022-07-29T07:40:33;2.73;;;1.30;;
15708;SDS011;7954;51.914;8.420;2022-07-29T07:43:21;1.63;;;1.30;;
15708;SDS011;7954;51.914;8.420;2022-07-29T07:46:12;5.60;;;1.50;;
15708;SDS011;7954;51.914;8.420;2022-07-29T07:49:00;1.43;;;1.30;;
15708;SDS011;7954;51.914;8.420;2022-07-29T07:51:49;4.03;;;1.40;;
15708;SDS011;7954;51.914;8.420;2022-07-29T07:54:37;2.50;;;1.60;;
15708;SDS011;7954;51.914;8.420;2022-07-29T07:57:25;7.80;;;2.20;;
15708;SDS011;7954;51.914;8.420;2022-07-29T08:00:14;2.73;;;1.77;;
15708;SDS011;7954;51.914;8.420;2022-07-29T08:03:04;2.30;;;1.40;;
15708;SDS011;7954;51.914;8.420;2022-07-29T08:06:02;3.17;;;1.97;;
15708;SDS011;7954;51.914;8.420;2022-07-29T08:08:50;2.53;;;1.57;;
15708;SDS011;7954;51.914;8.420;2022-07-29T08:11:42;2.63;;;1.50;;
15708;SDS011;7954;51.914;8.420;2022-07-29T08:14:37;1.60;;;1.47;;
15708;SDS011;7954;51.914;8.420;2022-07-29T08:17:26;4.00;;;1.80;;
15708;SDS011;7954;51.914;8.420;2022-07-29T08:20:16;5.70;;;1.70;;
15708;SDS011;7954;51.914;8.420;2022-07-29T08:23:05;5.27;;;2.10;;
15708;SDS011;7954;51.914;8.420;2022-07-29T08:25:55;3.70;;;1.70;;
15708;SDS011;7954;51.914;8.420;2022-07-29T08:28:44;2.03;;;1.50;;
15708;SDS011;7954;51.914;8.420;2022-07-29T08:31:36;2.80;;;1.70;;
15708;SDS011;7954;51.914;8.420;2022-07-29T08:34:24;3.63;;;1.90;;
15708;SDS011;7954;51.914;8.420;2022-07-29T08:37:15;3.90;;;1.63;;
15708;SDS011;7954;51.914;8.420;2022-07-29T08:40:03;2.40;;;1.30;;
15708;SDS011;7954;51.914;8.420;2022-07-29T08:42:59;7.37;;;1.67;;
15708;SDS011;7954;51.914;8.420;2022-07-29T08:45:52;2.13;;;1.40;;
15708;SDS011;7954;51.914;8.420;2022-07-29T08:48:41;2.03;;;1.50;;
15708;SDS011;7954;51.914;8.420;2022-07-29T08:51:29;2.37;;;1.90;;
15708;SDS011;7954;51.914;8.420;2022-07-29T08:54:23;3.00;;;1.60;;
15708;SDS011;7954;51.914;8.420;2022-07-29T08:57:12;5.37;;;1.80;;
15708;SDS011;7954;51.914;8.420;2022-07-29T09:00:04;2.07;;;1.53;;
15708;SDS011;7954;51.914;8.420;2022-07-29T09:02:57;4.37;;;2.10;;
15708;SDS011;7954;51.914;8.420;2022-07-29T09:05:47;2.20;;;1.33;;
15708;SDS011;7954;51.914;8.420;2022-07-29T09:08:36;2.53;;;1.53;;
15708;SDS011;7954;51.914;8.420;2022-07-29T09:11:26;2.53;;;1.33;;
15708;SDS011;7954;51.914;8.420;2022-07-29T09:14:15;5.33;;;2.10;;
15708;SDS011;7954;51.914;8.420;2022-07-29T09:17:04;1.57;;;1.47;;
15708;SDS011;7954;51.914;8.420;2022-07-29T09:19:54;3.40;;;1.70;;
15708;SDS011;7954;51.914;8.420;2022-07-29T09:22:56;2.73;;;1.67;;
15708;SDS011;7954;51.914;8.420;2022-07-29T09:25:45;2.10;;;1.50;;
15708;SDS011;7954;51.914;8.420;2022-07-29T09:28:35;2.97;;;1.53;;
15708;SDS011;7954;51.914;8.420;2022-07-29T09:31:32;2.40;;;1.60;;
15708;SDS011;7954;51.914;8.420;2022-07-29T09:34:22;3.63;;;1.90;;
15708;SDS011;7954;51.914;8.420;2022-07-29T09:37:25;1.90;;;1.53;;
15708;SDS011;7954;51.914;8.420;2022-07-29T09:40:15;1.77;;;1.60;;
15708;SDS011;7954;51.914;8.420;2022-07-29T09:43:10;2.50;;;1.73;;
15708;SDS011;7954;51.914;8.420;2022-07-29T09:46:10;3.70;;;1.92;;
15708;SDS011;7954;51.914;8.420;2022-07-29T09:49:08;3.77;;;1.70;;
15708;SDS011;7954;51.914;8.420;2022-07-29T09:52:04;1.77;;;1.52;;
15708;SDS011;7954;51.914;8.420;2022-07-29T09:55:02;2.80;;;1.77;;
15708;SDS011;7954;51.914;8.420;2022-07-29T09:57:52;3.88;;;1.60;;
15708;SDS011;7954;51.914;8.420;2022-07-29T10:00:41;1.83;;;1.60;;
15708;SDS011;7954;51.914;8.420;2022-07-29T10:03:32;1.65;;;1.33;;
15708;SDS011;7954;51.914;8.420;2022-07-29T10:06:20;2.03;;;1.37;;
15708;SDS011;7954;51.914;8.420;2022-07-29T10:09:08;4.95;;;1.50;;
15708;SDS011;7954;51.914;8.420;2022-07-29T10:12:07;2.85;;;1.80;;
15708;SDS011;7954;51.914;8.420;2022-07-29T10:14:57;3.65;;;1.60;;
15708;SDS011;7954;51.914;8.420;2022-07-29T10:17:46;2.95;;;1.83;;
15708;SDS011;7954;51.914;8.420;2022-07-29T10:20:36;3.60;;;1.70;;
15708;SDS011;7954;51.914;8.420;2022-07-29T10:23:25;2.10;;;1.58;;
15708;SDS011;7954;51.914;8.420;2022-07-29T10:26:14;4.75;;;1.90;;
15708;SDS011;7954;51.914;8.420;2022-07-29T10:29:04;1.70;;;1.60;;
15708;SDS011;7954;51.914;8.420;2022-07-29T10:31:55;2.78;;;1.70;;
15708;SDS011;7954;51.914;8.420;2022-07-29T10:35:06;3.95;;;1.80;;
15708;SDS011;7954;51.914;8.420;2022-07-29T10:38:07;3.30;;;1.63;;
15708;SDS011;7954;51.914;8.420;2022-07-29T10:41:18;2.20;;;1.77;;
15708;SDS011;7954;51.914;8.420;2022-07-29T10:44:30;3.78;;;1.67;;
15708;SDS011;7954;51.914;8.420;2022-07-29T10:47:19;3.20;;;1.50;;
15708;SDS011;7954;51.914;8.420;2022-07-29T10:50:08;2.47;;;1.70;;
15708;SDS011;7954;51.914;8.420;2022-07-29T10:53:02;2.15;;;1.40;;
15708;SDS011;7954;51.914;8.420;2022-07-29T10:55:54;2.88;;;1.88;;
15708;SDS011;7954;51.914;8.420;2022-07-29T10:58:44;2.20;;;1.75;;
15708;SDS011;7954;51.914;8.420;2022-07-29T11:01:38;3.25;;;1.73;;
15708;SDS011;7954;51.914;8.420;2022-07-29T11:11:32;3.35;;;1.85;;
15708;SDS011;7954;51.914;8.420;2022-07-29T11:18:05;2.45;;;1.80;;
15708;SDS011;7954;51.914;8.420;2022-07-29T11:21:00;4.18;;;1.80;;
15708;SDS011;7954;51.914;8.420;2022-07-29T11:23:54;3.72;;;1.88;;
15708;SDS011;7954;51.914;8.420;2022-07-29T11:27:19;3.72;;;1.55;;
15708;SDS011;7954;51.914;8.420;2022-07-29T11:30:46;2.92;;;1.67;;
15708;SDS011;7954;51.914;8.420;2022-07-29T11:33:38;2.20;;;1.98;;
15708;SDS011;7954;51.914;8.420;2022-07-29T11:43:20;2.15;;;1.63;;
15708;SDS011;7954;51.914;8.420;2022-07-29T11:46:46;2.58;;;1.80;;
15708;SDS011;7954;51.914;8.420;2022-07-29T11:49:35;3.10;;;1.77;;
15708;SDS011;7954;51.914;8.420;2022-07-29T11:52:30;2.45;;;1.40;;
15708;SDS011;7954;51.914;8.420;2022-07-29T11:55:38;3.58;;;1.60;;
15708;SDS011;7954;51.914;8.420;2022-07-29T11:58:37;2.65;;;1.70;;
15708;SDS011;7954;51.914;8.420;2022-07-29T12:01:26;2.90;;;1.70;;
15708;SDS011;7954;51.914;8.420;2022-07-29T12:04:14;2.05;;;1.50;;
15708;SDS011;7954;51.914;8.420;2022-07-29T12:07:05;3.25;;;1.70;;
15708;SDS011;7954;51.914;8.420;2022-07-29T12:09:53;2.25;;;1.55;;
15708;SDS011;7954;51.914;8.420;2022-07-29T12:12:44;1.63;;;1.52;;
15708;SDS011;7954;51.914;8.420;2022-07-29T12:15:39;4.47;;;2.05;;
15708;SDS011;7954;51.914;8.420;2022-07-29T12:18:32;2.50;;;1.90;;
15708;SDS011;7954;51.914;8.420;2022-07-29T12:21:21;2.45;;;1.80;;
15708;SDS011;7954;51.914;8.420;2022-07-29T12:24:11;3.17;;;1.80;;
15708;SDS011;7954;51.914;8.420;2022-07-29T12:26:59;2.53;;;1.92;;
15708;SDS011;7954;51.914;8.420;2022-07-29T12:29:56;4.27;;;1.80;;
15708;SDS011;7954;51.914;8.420;2022-07-29T12:32:47;4.70;;;1.85;;
15708;SDS011;7954;51.914;8.420;2022-07-29T12:35:36;4.88;;;1.70;;
15708;SDS011;7954;51.914;8.420;2022-07-29T12:38:24;4.80;;;1.95;;
15708;SDS011;7954;51.914;8.420;2022-07-29T12:41:13;3.40;;;1.80;;
15708;SDS011;7954;51.914;8.420;2022-07-29T12:44:02;2.38;;;1.80;;
15708;SDS011;7954;51.914;8.420;2022-07-29T12:47:02;2.95;;;1.65;;
15708;SDS011;7954;51.914;8.420;2022-07-29T12:49:51;2.75;;;1.80;;
15708;SDS011;7954;51.914;8.420;2022-07-29T12:53:07;2.10;;;1.83;;
15708;SDS011;7954;51.914;8.420;2022-07-29T12:55:56;7.55;;;1.85;;
15708;SDS011;7954;51.914;8.420;2022-07-29T12:59:10;4.20;;;1.90;;
15708;SDS011;7954;51.914;8.420;2022-07-29T13:01:59;1.85;;;1.70;;
15708;SDS011;7954;51.914;8.420;2022-07-29T13:04:56;1.75;;;1.58;;
15708;SDS011;7954;51.914;8.420;2022-07-29T13:07:46;4.47;;;1.65;;
15708;SDS011;7954;51.914;8.420;2022-07-29T13:10:42;4.80;;;2.35;;
15708;SDS011;7954;51.914;8.420;2022-07-29T13:13:31;2.38;;;1.88;;
15708;SDS011;7954;51.914;8.420;2022-07-29T13:16:19;2.65;;;1.77;;
15708;SDS011;7954;51.914;8.420;2022-07-29T13:19:11;4.63;;;2.03;;
15708;SDS011;7954;51.914;8.420;2022-07-29T13:22:00;5.07;;;1.80;;
15708;SDS011;7954;51.914;8.420;2022-07-29T13:24:50;2.70;;;1.95;;
15708;SDS011;7954;51.914;8.420;2022-07-29T13:27:39;2.00;;;1.80;;
15708;SDS011;7954;51.914;8.420;2022-07-29T13:30:27;2.75;;;1.88;;
15708;SDS011;7954;51.914;8.420;2022-07-29T13:33:15;2.63;;;1.80;;
15708;SDS011;7954;51.914;8.420;2022-07-29T13:36:04;3.17;;;1.80;;
15708;SDS011;7954;51.914;8.420;2022-07-29T13:38:53;2.97;;;1.70;;
15708;SDS011;7954;51.914;8.420;2022-07-29T13:41:42;4.70;;;2.00;;
15708;SDS011;7954;51.914;8.420;2022-07-29T13:44:30;2.10;;;1.60;;
15708;SDS011;7954;51.914;8.420;2022-07-29T13:47:19;2.75;;;1.73;;
15708;SDS011;7954;51.914;8.420;2022-07-29T13:50:18;4.15;;;1.80;;
15708;SDS011;7954;51.914;8.420;2022-07-29T13:53:06;4.35;;;1.67;;
15708;SDS011;7954;51.914;8.420;2022-07-29T13:56:04;2.90;;;1.65;;
15708;SDS011;7954;51.914;8.420;2022-07-29T13:58:53;1.80;;;1.60;;
15708;SDS011;7954;51.914;8.420;2022-07-29T14:01:41;2.30;;;1.77;;
15708;SDS011;7954;51.914;8.420;2022-07-29T14:04:32;4.30;;;1.77;;
15708;SDS011;7954;51.914;8.420;2022-07-29T14:07:21;3.45;;;1.77;;
15708;SDS011;7954;51.914;8.420;2022-07-29T14:10:10;4.55;;;2.00;;
15708;SDS011;7954;51.914;8.420;2022-07-29T14:13:05;2.65;;;1.90;;
15708;SDS011;7954;51.914;8.420;2022-07-29T14:16:11;4.90;;;2.55;;
15708;SDS011;7954;51.914;8.420;2022-07-29T14:19:00;4.30;;;2.38;;
15708;SDS011;7954;51.914;8.420;2022-07-29T14:21:49;8.18;;;2.47;;
15708;SDS011;7954;51.914;8.420;2022-07-29T14:24:37;3.70;;;2.40;;
15708;SDS011;7954;51.914;8.420;2022-07-29T14:27:26;3.90;;;2.80;;
15708;SDS011;7954;51.914;8.420;2022-07-29T14:30:29;5.03;;;2.28;;
15708;SDS011;7954;51.914;8.420;2022-07-29T14:33:18;2.83;;;1.90;;
15708;SDS011;7954;51.914;8.420;2022-07-29T14:36:07;4.22;;;2.20;;
15708;SDS011;7954;51.914;8.420;2022-07-29T14:38:55;4.63;;;2.13;;
15708;SDS011;7954;51.914;8.420;2022-07-29T14:41:43;4.00;;;2.33;;
15708;SDS011;7954;51.914;8.420;2022-07-29T14:44:32;2.40;;;1.70;;
15708;SDS011;7954;51.914;8.420;2022-07-29T14:47:22;3.45;;;2.30;;
15708;SDS011;7954;51.914;8.420;2022-07-29T14:50:10;5.78;;;2.33;;
15708;SDS011;7954;51.914;8.420;2022-07-29T14:52:58;2.25;;;1.85;;
15708;SDS011;7954;51.914;8.420;2022-07-29T14:55:46;3.80;;;2.20;;
15708;SDS011;7954;51.914;8.420;2022-07-29T14:58:36;4.28;;;2.13;;
15708;SDS011;7954;51.914;8.420;2022-07-29T15:01:35;4.15;;;2.33;;
15708;SDS011;7954;51.914;8.420;2022-07-29T15:04:25;6.07;;;2.40;;
15708;SDS011;7954;51.914;8.420;2022-07-29T15:07:14;4.57;;;2.13;;
15708;SDS011;7954;51.914;8.420;2022-07-29T15:10:03;3.95;;;2.25;;
15708;SDS011;7954;51.914;8.420;2022-07-29T15:12:53;3.53;;;2.10;;
15708;SDS011;7954;51.914;8.420;2022-07-29T15:15:42;4.00;;;2.22;;
15708;SDS011;7954;51.914;8.420;2022-07-29T15:18:31;3.75;;;2.20;;
15708;SDS011;7954;51.914;8.420;2022-07-29T15:21:20;4.53;;;2.00;;
15708;SDS011;7954;51.914;8.420;2022-07-29T15:24:08;3.90;;;2.05;;
15708;SDS011;7954;51.914;8.420;2022-07-29T15:26:56;2.55;;;2.13;;
15708;SDS011;7954;51.914;8.420;2022-07-29T15:29:45;2.35;;;1.90;;
15708;SDS011;7954;51.914;8.420;2022-07-29T15:32:33;2.17;;;1.70;;
15708;SDS011;7954;51.914;8.420;2022-07-29T15:35:21;4.15;;;2.10;;
15708;SDS011;7954;51.914;8.420;2022-07-29T15:38:11;3.00;;;1.95;;
15708;SDS011;7954;51.914;8.420;2022-07-29T15:41:00;4.15;;;2.10;;
15708;SDS011;7954;51.914;8.420;2022-07-29T15:43:48;3.38;;;2.10;;
15708;SDS011;7954;51.914;8.420;2022-07-29T15:46:37;3.97;;;2.15;;
15708;SDS011;7954;51.914;8.420;2022-07-29T15:49:43;3.75;;;1.95;;
15708;SDS011;7954;51.914;8.420;2022-07-29T15:52:34;2.53;;;2.10;;
15708;SDS011;7954;51.914;8.420;2022-07-29T15:55:28;4.57;;;2.35;;
15708;SDS011;7954;51.914;8.420;2022-07-29T15:58:16;3.58;;;2.15;;
15708;SDS011;7954;51.914;8.420;2022-07-29T16:01:05;2.40;;;2.15;;
15708;SDS011;7954;51.914;8.420;2022-07-29T16:03:53;2.58;;;2.10;;
15708;SDS011;7954;51.914;8.420;2022-07-29T16:06:42;5.53;;;2.10;;
15708;SDS011;7954;51.914;8.420;2022-07-29T16:09:32;4.07;;;2.30;;
15708;SDS011;7954;51.914;8.420;2022-07-29T16:12:21;2.55;;;2.20;;
15708;SDS011;7954;51.914;8.420;2022-07-29T16:15:09;5.18;;;2.10;;
15708;SDS011;7954;51.914;8.420;2022-07-29T16:17:58;3.40;;;2.10;;
15708;SDS011;7954;51.914;8.420;2022-07-29T16:20:46;4.13;;;2.17;;
15708;SDS011;7954;51.914;8.420;2022-07-29T16:23:35;3.55;;;2.08;;
15708;SDS011;7954;51.914;8.420;2022-07-29T16:26:23;2.57;;;2.03;;
15708;SDS011;7954;51.914;8.420;2022-07-29T16:29:13;3.77;;;2.17;;
15708;SDS011;7954;51.914;8.420;2022-07-29T16:32:03;4.40;;;1.87;;
15708;SDS011;7954;51.914;8.420;2022-07-29T16:34:52;2.97;;;2.13;;
15708;SDS011;7954;51.914;8.420;2022-07-29T16:37:41;7.77;;;2.30;;
15708;SDS011;7954;51.914;8.420;2022-07-29T16:40:29;3.93;;;2.10;;
15708;SDS011;7954;51.914;8.420;2022-07-29T16:43:17;3.60;;;1.80;;
15708;SDS011;7954;51.914;8.420;2022-07-29T16:46:07;4.77;;;1.73;;
15708;SDS011;7954;51.914;8.420;2022-07-29T16:49:04;3.40;;;2.43;;
15708;SDS011;7954;51.914;8.420;2022-07-29T16:51:52;5.40;;;1.83;;
15708;SDS011;7954;51.914;8.420;2022-07-29T16:54:41;4.53;;;2.50;;
15708;SDS011;7954;51.914;8.420;2022-07-29T16:57:29;6.67;;;2.10;;
15708;SDS011;7954;51.914;8.420;2022-07-29T17:00:17;3.43;;;2.30;;
15708;SDS011;7954;51.914;8.420;2022-07-29T17:03:07;5.00;;;2.20;;
15708;SDS011;7954;51.914;8.420;2022-07-29T17:05:55;2.20;;;1.97;;
15708;SDS011;7954;51.914;8.420;2022-07-29T17:08:44;4.00;;;1.97;;
15708;SDS011;7954;51.914;8.420;2022-07-29T17:11:32;3.60;;;2.00;;
15708;SDS011;7954;51.914;8.420;2022-07-29T17:14:40;3.73;;;2.10;;
15708;SDS011;7954;51.914;8.420;2022-07-29T17:17:28;3.27;;;2.27;;
15708;SDS011;7954;51.914;8.420;2022-07-29T17:20:38;4.63;;;2.17;;
15708;SDS011;7954;51.914;8.420;2022-07-29T17:23:27;7.50;;;2.40;;
15708;SDS011;7954;51.914;8.420;2022-07-29T17:26:16;7.47;;;3.27;;
15708;SDS011;7954;51.914;8.420;2022-07-29T17:29:04;3.93;;;2.33;;
15708;SDS011;7954;51.914;8.420;2022-07-29T17:31:53;4.60;;;2.50;;
15708;SDS011;7954;51.914;8.420;2022-07-29T17:34:41;3.07;;;2.07;;
15708;SDS011;7954;51.914;8.420;2022-07-29T17:37:31;2.60;;;2.20;;
15708;SDS011;7954;51.914;8.420;2022-07-29T17:40:20;4.27;;;2.50;;
15708;SDS011;7954;51.914;8.420;2022-07-29T17:43:08;4.13;;;2.43;;
15708;SDS011;7954;51.914;8.420;2022-07-29T17:45:56;3.80;;;2.77;;